Terminal Aerodrome Forecast
Issued by NWS

Home | Current Version | Previous Version | Text Only | Print | Product List | Glossary Off
Versions: 1 2 3 4 5 6 7 8 9 10 11 12

810
FTUS43 KOAX 062332
TAFCDR
TAF
KCDR 062332Z 0700/0724 32008KT P6SM SCT250
     FM071500 31013KT P6SM SCT050 BKN200=

USA.gov is the U.S. government's official web portal to all federal, state and local government web resources and services.